THY2006 LTFM-LTAZ
Flight info
| Callsign | THY2006 |
|---|---|
| Flight time | N/A |
| Altitude | 37000 |
| Route | VICEN UT57 VEVUD UT341 BAG UL601 AZBUL W105 ULRAS |
| Aircraft | A320/M-SDE3FGHIRWY/LB1 |
Departure
| Time | 2026-02-19 14:28 |
|---|---|
| Airport | İstanbul Airport (LTFM) |
Arrival
| Time | N/A |
|---|---|
| Airport | Nevşehir Kapadokya Airport (LTAZ) |
| Time | Latitude | Longitude | Altitude | Speed | Heading |
|---|---|---|---|---|---|
| 2026-02-19 13:35 | 41.26183 | 28.74895 | 334 ft | 0 kts | 251° |
| 2026-02-19 14:12 | 41.26186 | 28.74906 | 334 ft | 3 kts | 252° |
| 2026-02-19 14:12 | 41.26192 | 28.74932 | 330 ft | 3 kts | 259° |
| 2026-02-19 14:13 | 41.26194 | 28.74958 | 330 ft | 3 kts | 272° |
| 2026-02-19 14:13 | 41.26191 | 28.74983 | 330 ft | 3 kts | 302° |
| 2026-02-19 14:13 | 41.26182 | 28.74996 | 332 ft | 2 kts | 352° |
| 2026-02-19 14:13 | 41.26175 | 28.74997 | 329 ft | 0 kts | 353° |
| 2026-02-19 14:18 | 41.26176 | 28.74997 | 329 ft | 0 kts | 353° |
| 2026-02-19 14:18 | 41.26192 | 28.74995 | 331 ft | 5 kts | 357° |
| 2026-02-19 14:18 | 41.26239 | 28.75030 | 334 ft | 10 kts | 60° |
| 2026-02-19 14:18 | 41.26245 | 28.75128 | 334 ft | 12 kts | 89° |
| 2026-02-19 14:19 | 41.26246 | 28.75194 | 334 ft | 4 kts | 89° |
| 2026-02-19 14:19 | 41.26246 | 28.75238 | 334 ft | 6 kts | 89° |
| 2026-02-19 14:19 | 41.26246 | 28.75303 | 334 ft | 9 kts | 89° |
| 2026-02-19 14:19 | 41.26270 | 28.75383 | 332 ft | 11 kts | 28° |
| 2026-02-19 14:20 | 41.26583 | 28.75384 | 333 ft | 18 kts | 359° |
| 2026-02-19 14:20 | 41.26718 | 28.75379 | 333 ft | 20 kts | 358° |
| 2026-02-19 14:21 | 41.26868 | 28.75374 | 332 ft | 22 kts | 358° |
| 2026-02-19 14:21 | 41.26995 | 28.75373 | 332 ft | 13 kts | 0° |
| 2026-02-19 14:21 | 41.27094 | 28.75371 | 334 ft | 15 kts | 359° |
| 2026-02-19 14:21 | 41.27206 | 28.75368 | 334 ft | 17 kts | 359° |
| 2026-02-19 14:22 | 41.27333 | 28.75365 | 333 ft | 19 kts | 359° |
| 2026-02-19 14:22 | 41.27468 | 28.75362 | 332 ft | 18 kts | 359° |
| 2026-02-19 14:22 | 41.27598 | 28.75360 | 331 ft | 20 kts | 359° |
| 2026-02-19 14:22 | 41.27742 | 28.75357 | 333 ft | 22 kts | 358° |
| 2026-02-19 14:23 | 41.27900 | 28.75351 | 331 ft | 24 kts | 358° |
| 2026-02-19 14:23 | 41.28073 | 28.75347 | 333 ft | 26 kts | 359° |
| 2026-02-19 14:23 | 41.28212 | 28.75345 | 331 ft | 19 kts | 359° |
| 2026-02-19 14:23 | 41.28351 | 28.75341 | 332 ft | 21 kts | 359° |
| 2026-02-19 14:24 | 41.28504 | 28.75338 | 331 ft | 23 kts | 360° |
| 2026-02-19 14:24 | 41.28738 | 28.75332 | 334 ft | 1 kts | 359° |
| 2026-02-19 14:24 | 41.28746 | 28.75332 | 331 ft | 0 kts | 359° |
| 2026-02-19 14:25 | 41.28747 | 28.75332 | 331 ft | 0 kts | 359° |
| 2026-02-19 14:25 | 41.28749 | 28.75332 | 334 ft | 2 kts | 359° |
| 2026-02-19 14:25 | 41.28780 | 28.75334 | 334 ft | 7 kts | 6° |
| 2026-02-19 14:26 | 41.28815 | 28.75388 | 331 ft | 9 kts | 81° |
| 2026-02-19 14:26 | 41.28818 | 28.75485 | 334 ft | 12 kts | 89° |
| 2026-02-19 14:26 | 41.28816 | 28.75584 | 331 ft | 10 kts | 108° |
| 2026-02-19 14:26 | 41.28765 | 28.75621 | 332 ft | 0 kts | 178° |
| 2026-02-19 14:27 | 41.28764 | 28.75621 | 332 ft | 2 kts | 178° |
| 2026-02-19 14:27 | 41.28504 | 28.75623 | 334 ft | 72 kts | 179° |
| 2026-02-19 14:27 | 41.27815 | 28.75634 | 332 ft | 125 kts | 180° |
| 2026-02-19 14:28 | 41.26850 | 28.75636 | 666 ft | 140 kts | 182° |
| 2026-02-19 14:28 | 41.24929 | 28.75583 | 2059 ft | 136 kts | 185° |
| 2026-02-19 14:28 | 41.23980 | 28.75757 | 2555 ft | 151 kts | 152° |
| 2026-02-19 14:29 | 41.23198 | 28.76875 | 2858 ft | 178 kts | 134° |
| 2026-02-19 14:29 | 41.22379 | 28.78241 | 3146 ft | 200 kts | 134° |
| 2026-02-19 14:29 | 41.21408 | 28.79688 | 3449 ft | 217 kts | 144° |
| 2026-02-19 14:29 | 41.20144 | 28.80935 | 3877 ft | 235 kts | 150° |
| 2026-02-19 14:30 | 41.18638 | 28.81899 | 4514 ft | 244 kts | 167° |
| 2026-02-19 14:30 | 41.16939 | 28.82263 | 5275 ft | 253 kts | 181° |
| 2026-02-19 14:30 | 41.15149 | 28.82147 | 6078 ft | 261 kts | 186° |
| 2026-02-19 14:30 | 41.13312 | 28.82010 | 6913 ft | 268 kts | 186° |
| 2026-02-19 14:31 | 41.11460 | 28.81887 | 7737 ft | 273 kts | 186° |
| 2026-02-19 14:31 | 41.09528 | 28.81764 | 8097 ft | 280 kts | 186° |